sensor_id;sensor_type;location;lat;lon;timestamp;temperature;humidity
14016;DHT22;7083;48.854;9.158;2022-08-03T00:00:54;17.80;99.90
14016;DHT22;7083;48.854;9.158;2022-08-03T00:03:21;17.70;99.90
14016;DHT22;7083;48.854;9.158;2022-08-03T00:05:48;17.70;99.90
14016;DHT22;7083;48.854;9.158;2022-08-03T00:08:16;17.70;99.90
14016;DHT22;7083;48.854;9.158;2022-08-03T00:10:43;17.70;99.90
14016;DHT22;7083;48.854;9.158;2022-08-03T00:13:09;17.70;99.90
14016;DHT22;7083;48.854;9.158;2022-08-03T00:15:38;17.60;99.90
14016;DHT22;7083;48.854;9.158;2022-08-03T00:18:05;17.60;99.90
14016;DHT22;7083;48.854;9.158;2022-08-03T00:20:31;17.60;99.90
14016;DHT22;7083;48.854;9.158;2022-08-03T00:22:58;17.60;99.90
14016;DHT22;7083;48.854;9.158;2022-08-03T00:25:26;17.60;99.90
14016;DHT22;7083;48.854;9.158;2022-08-03T00:27:53;17.60;99.90
14016;DHT22;7083;48.854;9.158;2022-08-03T00:30:20;17.60;99.90
14016;DHT22;7083;48.854;9.158;2022-08-03T00:32:46;17.60;99.90
14016;DHT22;7083;48.854;9.158;2022-08-03T00:35:13;17.50;99.90
14016;DHT22;7083;48.854;9.158;2022-08-03T00:37:40;17.50;99.90
14016;DHT22;7083;48.854;9.158;2022-08-03T00:40:08;17.50;99.90
14016;DHT22;7083;48.854;9.158;2022-08-03T00:42:46;17.50;99.90
14016;DHT22;7083;48.854;9.158;2022-08-03T00:45:13;17.50;99.90
14016;DHT22;7083;48.854;9.158;2022-08-03T00:47:39;17.40;99.90
14016;DHT22;7083;48.854;9.158;2022-08-03T00:50:06;17.40;99.90
14016;DHT22;7083;48.854;9.158;2022-08-03T00:52:33;17.40;99.90
14016;DHT22;7083;48.854;9.158;2022-08-03T00:55:00;17.40;99.90
14016;DHT22;7083;48.854;9.158;2022-08-03T00:57:29;17.40;99.90
14016;DHT22;7083;48.854;9.158;2022-08-03T00:59:59;17.40;99.90
14016;DHT22;7083;48.854;9.158;2022-08-03T01:02:26;17.40;99.90
14016;DHT22;7083;48.854;9.158;2022-08-03T01:04:53;17.30;99.90
14016;DHT22;7083;48.854;9.158;2022-08-03T01:07:25;17.30;99.90
14016;DHT22;7083;48.854;9.158;2022-08-03T01:09:56;17.30;99.90
14016;DHT22;7083;48.854;9.158;2022-08-03T01:12:33;17.30;99.90
14016;DHT22;7083;48.854;9.158;2022-08-03T01:15:09;17.30;99.90
14016;DHT22;7083;48.854;9.158;2022-08-03T01:17:42;17.30;99.90
14016;DHT22;7083;48.854;9.158;2022-08-03T01:20:13;17.30;99.90
14016;DHT22;7083;48.854;9.158;2022-08-03T01:22:56;17.30;99.90
14016;DHT22;7083;48.854;9.158;2022-08-03T01:25:33;17.30;99.90
14016;DHT22;7083;48.854;9.158;2022-08-03T01:28:18;17.30;99.90
14016;DHT22;7083;48.854;9.158;2022-08-03T01:30:49;17.30;99.90
14016;DHT22;7083;48.854;9.158;2022-08-03T01:33:21;17.30;99.90
14016;DHT22;7083;48.854;9.158;2022-08-03T01:35:52;17.30;99.90
14016;DHT22;7083;48.854;9.158;2022-08-03T01:38:25;17.20;99.90
14016;DHT22;7083;48.854;9.158;2022-08-03T01:40:53;17.20;99.90
14016;DHT22;7083;48.854;9.158;2022-08-03T01:43:24;17.20;99.90
14016;DHT22;7083;48.854;9.158;2022-08-03T01:45:54;17.20;99.90
14016;DHT22;7083;48.854;9.158;2022-08-03T01:48:22;17.10;99.90
14016;DHT22;7083;48.854;9.158;2022-08-03T01:50:50;17.10;99.90
14016;DHT22;7083;48.854;9.158;2022-08-03T01:53:18;17.10;99.90
14016;DHT22;7083;48.854;9.158;2022-08-03T01:55:48;17.10;99.90
14016;DHT22;7083;48.854;9.158;2022-08-03T01:58:19;17.00;99.90
14016;DHT22;7083;48.854;9.158;2022-08-03T02:00:48;17.00;99.90
14016;DHT22;7083;48.854;9.158;2022-08-03T02:03:17;17.00;99.90
14016;DHT22;7083;48.854;9.158;2022-08-03T02:05:46;17.00;99.90
14016;DHT22;7083;48.854;9.158;2022-08-03T02:08:15;16.90;99.90
14016;DHT22;7083;48.854;9.158;2022-08-03T02:10:44;16.90;99.90
14016;DHT22;7083;48.854;9.158;2022-08-03T02:13:12;16.90;99.90
14016;DHT22;7083;48.854;9.158;2022-08-03T02:15:41;16.90;99.90
14016;DHT22;7083;48.854;9.158;2022-08-03T02:18:08;16.90;99.90
14016;DHT22;7083;48.854;9.158;2022-08-03T02:20:37;16.90;99.90
14016;DHT22;7083;48.854;9.158;2022-08-03T02:23:05;16.80;99.90
14016;DHT22;7083;48.854;9.158;2022-08-03T02:25:34;16.80;99.90
14016;DHT22;7083;48.854;9.158;2022-08-03T02:28:07;16.80;99.90
14016;DHT22;7083;48.854;9.158;2022-08-03T02:30:35;16.80;99.90
14016;DHT22;7083;48.854;9.158;2022-08-03T02:33:04;16.80;99.90
14016;DHT22;7083;48.854;9.158;2022-08-03T02:35:34;16.80;99.90
14016;DHT22;7083;48.854;9.158;2022-08-03T02:38:04;16.70;99.90
14016;DHT22;7083;48.854;9.158;2022-08-03T02:40:33;16.70;99.90
14016;DHT22;7083;48.854;9.158;2022-08-03T02:43:04;16.70;99.90
14016;DHT22;7083;48.854;9.158;2022-08-03T02:45:34;16.70;99.90
14016;DHT22;7083;48.854;9.158;2022-08-03T02:48:03;16.70;99.90
14016;DHT22;7083;48.854;9.158;2022-08-03T02:50:32;16.70;99.90
14016;DHT22;7083;48.854;9.158;2022-08-03T02:53:00;16.70;99.90
14016;DHT22;7083;48.854;9.158;2022-08-03T02:55:30;16.70;99.90
14016;DHT22;7083;48.854;9.158;2022-08-03T02:58:00;16.70;99.90
14016;DHT22;7083;48.854;9.158;2022-08-03T03:00:28;16.60;99.90
14016;DHT22;7083;48.854;9.158;2022-08-03T03:02:57;16.70;99.90
14016;DHT22;7083;48.854;9.158;2022-08-03T03:05:24;16.70;99.90
14016;DHT22;7083;48.854;9.158;2022-08-03T03:07:51;16.70;99.90
14016;DHT22;7083;48.854;9.158;2022-08-03T03:10:19;16.60;99.90
14016;DHT22;7083;48.854;9.158;2022-08-03T03:12:49;16.60;99.90
14016;DHT22;7083;48.854;9.158;2022-08-03T03:15:18;16.60;99.90
14016;DHT22;7083;48.854;9.158;2022-08-03T03:17:45;16.60;99.90
14016;DHT22;7083;48.854;9.158;2022-08-03T03:20:13;16.60;99.90
14016;DHT22;7083;48.854;9.158;2022-08-03T03:22:41;16.60;99.90
14016;DHT22;7083;48.854;9.158;2022-08-03T03:25:08;16.60;99.90
14016;DHT22;7083;48.854;9.158;2022-08-03T03:27:35;16.60;99.90
14016;DHT22;7083;48.854;9.158;2022-08-03T03:30:04;16.60;99.90
14016;DHT22;7083;48.854;9.158;2022-08-03T03:32:31;16.60;99.90
14016;DHT22;7083;48.854;9.158;2022-08-03T03:34:58;16.60;99.90
14016;DHT22;7083;48.854;9.158;2022-08-03T03:37:25;16.60;99.90
14016;DHT22;7083;48.854;9.158;2022-08-03T03:39:53;16.60;99.90
14016;DHT22;7083;48.854;9.158;2022-08-03T03:42:20;16.60;99.90
14016;DHT22;7083;48.854;9.158;2022-08-03T03:44:46;16.60;99.90
14016;DHT22;7083;48.854;9.158;2022-08-03T03:47:14;16.60;99.90
14016;DHT22;7083;48.854;9.158;2022-08-03T03:49:41;16.60;99.90
14016;DHT22;7083;48.854;9.158;2022-08-03T03:52:09;16.60;99.90
14016;DHT22;7083;48.854;9.158;2022-08-03T03:54:39;16.60;99.90
14016;DHT22;7083;48.854;9.158;2022-08-03T03:57:06;16.60;99.90
14016;DHT22;7083;48.854;9.158;2022-08-03T03:59:36;16.60;99.90
14016;DHT22;7083;48.854;9.158;2022-08-03T04:02:03;16.60;99.90
14016;DHT22;7083;48.854;9.158;2022-08-03T04:04:32;16.50;99.90
14016;DHT22;7083;48.854;9.158;2022-08-03T04:07:16;16.60;99.90
14016;DHT22;7083;48.854;9.158;2022-08-03T04:10:02;16.60;99.90
14016;DHT22;7083;48.854;9.158;2022-08-03T04:12:47;16.60;99.90
14016;DHT22;7083;48.854;9.158;2022-08-03T04:15:18;16.60;99.90
14016;DHT22;7083;48.854;9.158;2022-08-03T04:17:46;16.60;99.90
14016;DHT22;7083;48.854;9.158;2022-08-03T04:20:17;16.60;99.90
14016;DHT22;7083;48.854;9.158;2022-08-03T04:22:45;16.60;99.90
14016;DHT22;7083;48.854;9.158;2022-08-03T04:25:15;16.60;99.90
14016;DHT22;7083;48.854;9.158;2022-08-03T04:27:45;16.60;99.90
14016;DHT22;7083;48.854;9.158;2022-08-03T04:30:13;16.60;99.90
14016;DHT22;7083;48.854;9.158;2022-08-03T04:32:41;16.60;99.90
14016;DHT22;7083;48.854;9.158;2022-08-03T04:35:09;16.70;99.90
14016;DHT22;7083;48.854;9.158;2022-08-03T04:37:39;16.70;99.90
14016;DHT22;7083;48.854;9.158;2022-08-03T04:40:10;16.70;99.90
14016;DHT22;7083;48.854;9.158;2022-08-03T04:42:39;16.80;99.90
14016;DHT22;7083;48.854;9.158;2022-08-03T04:45:11;16.80;99.90
14016;DHT22;7083;48.854;9.158;2022-08-03T04:47:38;16.90;99.90
14016;DHT22;7083;48.854;9.158;2022-08-03T04:50:06;16.90;99.90
14016;DHT22;7083;48.854;9.158;2022-08-03T04:52:34;16.90;99.90
14016;DHT22;7083;48.854;9.158;2022-08-03T04:55:02;17.00;99.90
14016;DHT22;7083;48.854;9.158;2022-08-03T04:57:29;17.00;99.90
14016;DHT22;7083;48.854;9.158;2022-08-03T04:59:56;17.10;99.90
14016;DHT22;7083;48.854;9.158;2022-08-03T05:02:22;17.10;99.90
14016;DHT22;7083;48.854;9.158;2022-08-03T05:04:49;17.20;99.90
14016;DHT22;7083;48.854;9.158;2022-08-03T05:07:17;17.20;99.90
14016;DHT22;7083;48.854;9.158;2022-08-03T05:09:44;17.30;99.90
14016;DHT22;7083;48.854;9.158;2022-08-03T05:12:12;17.30;99.90
14016;DHT22;7083;48.854;9.158;2022-08-03T05:14:39;17.40;99.90
14016;DHT22;7083;48.854;9.158;2022-08-03T05:17:06;17.50;99.90
14016;DHT22;7083;48.854;9.158;2022-08-03T05:19:32;17.50;99.90
14016;DHT22;7083;48.854;9.158;2022-08-03T05:21:59;17.50;99.90
14016;DHT22;7083;48.854;9.158;2022-08-03T05:24:26;17.70;99.90
14016;DHT22;7083;48.854;9.158;2022-08-03T05:26:52;17.70;99.90
14016;DHT22;7083;48.854;9.158;2022-08-03T05:29:20;17.80;99.90
14016;DHT22;7083;48.854;9.158;2022-08-03T05:31:47;17.90;99.90
14016;DHT22;7083;48.854;9.158;2022-08-03T05:34:14;17.90;99.90
14016;DHT22;7083;48.854;9.158;2022-08-03T05:36:40;18.00;99.90
14016;DHT22;7083;48.854;9.158;2022-08-03T05:39:07;18.10;99.90
14016;DHT22;7083;48.854;9.158;2022-08-03T05:41:34;18.10;99.90
14016;DHT22;7083;48.854;9.158;2022-08-03T05:44:01;18.20;99.90
14016;DHT22;7083;48.854;9.158;2022-08-03T05:46:29;18.30;99.90
14016;DHT22;7083;48.854;9.158;2022-08-03T05:48:55;18.40;99.90
14016;DHT22;7083;48.854;9.158;2022-08-03T05:51:22;18.40;99.90
14016;DHT22;7083;48.854;9.158;2022-08-03T05:53:49;18.50;99.90
14016;DHT22;7083;48.854;9.158;2022-08-03T05:56:16;18.60;99.90
14016;DHT22;7083;48.854;9.158;2022-08-03T05:58:44;18.60;99.90
14016;DHT22;7083;48.854;9.158;2022-08-03T06:01:11;18.70;99.90
14016;DHT22;7083;48.854;9.158;2022-08-03T06:03:39;18.80;99.90
14016;DHT22;7083;48.854;9.158;2022-08-03T06:06:06;18.80;99.90
14016;DHT22;7083;48.854;9.158;2022-08-03T06:08:33;18.90;99.90
14016;DHT22;7083;48.854;9.158;2022-08-03T06:11:00;19.00;99.90
14016;DHT22;7083;48.854;9.158;2022-08-03T06:13:26;19.10;99.90
14016;DHT22;7083;48.854;9.158;2022-08-03T06:15:54;19.20;99.90
14016;DHT22;7083;48.854;9.158;2022-08-03T06:18:20;19.30;99.90
14016;DHT22;7083;48.854;9.158;2022-08-03T06:20:50;19.40;99.90
14016;DHT22;7083;48.854;9.158;2022-08-03T06:23:17;19.40;99.90
14016;DHT22;7083;48.854;9.158;2022-08-03T06:25:44;19.50;99.90
14016;DHT22;7083;48.854;9.158;2022-08-03T06:28:11;19.60;99.90
14016;DHT22;7083;48.854;9.158;2022-08-03T06:30:39;19.70;99.90
14016;DHT22;7083;48.854;9.158;2022-08-03T06:33:06;19.80;99.90
14016;DHT22;7083;48.854;9.158;2022-08-03T06:35:33;19.80;99.90
14016;DHT22;7083;48.854;9.158;2022-08-03T06:38:01;19.90;99.90
14016;DHT22;7083;48.854;9.158;2022-08-03T06:40:28;20.00;99.90
14016;DHT22;7083;48.854;9.158;2022-08-03T06:42:56;20.10;99.90
14016;DHT22;7083;48.854;9.158;2022-08-03T06:45:23;20.20;99.90
14016;DHT22;7083;48.854;9.158;2022-08-03T06:47:59;20.30;99.90
14016;DHT22;7083;48.854;9.158;2022-08-03T06:50:27;20.40;99.90
14016;DHT22;7083;48.854;9.158;2022-08-03T06:52:54;20.50;99.90
14016;DHT22;7083;48.854;9.158;2022-08-03T06:55:22;20.60;99.90
14016;DHT22;7083;48.854;9.158;2022-08-03T06:57:49;20.70;99.90
14016;DHT22;7083;48.854;9.158;2022-08-03T07:00:16;20.70;99.90
14016;DHT22;7083;48.854;9.158;2022-08-03T07:02:42;20.80;99.90
14016;DHT22;7083;48.854;9.158;2022-08-03T07:05:10;20.90;99.90
14016;DHT22;7083;48.854;9.158;2022-08-03T07:07:38;21.00;99.90
14016;DHT22;7083;48.854;9.158;2022-08-03T07:10:06;21.10;99.90
14016;DHT22;7083;48.854;9.158;2022-08-03T07:12:34;21.20;99.90
14016;DHT22;7083;48.854;9.158;2022-08-03T07:15:02;21.30;99.90
14016;DHT22;7083;48.854;9.158;2022-08-03T07:17:30;21.40;99.90
14016;DHT22;7083;48.854;9.158;2022-08-03T07:19:58;21.50;99.90
14016;DHT22;7083;48.854;9.158;2022-08-03T07:22:25;21.60;99.90
14016;DHT22;7083;48.854;9.158;2022-08-03T07:24:52;21.70;99.90
14016;DHT22;7083;48.854;9.158;2022-08-03T07:27:19;21.80;99.90
14016;DHT22;7083;48.854;9.158;2022-08-03T07:29:47;21.90;99.90
14016;DHT22;7083;48.854;9.158;2022-08-03T07:32:14;22.00;99.90
14016;DHT22;7083;48.854;9.158;2022-08-03T07:34:41;22.10;99.90
14016;DHT22;7083;48.854;9.158;2022-08-03T07:37:07;22.30;99.90
14016;DHT22;7083;48.854;9.158;2022-08-03T07:39:34;22.40;99.90
14016;DHT22;7083;48.854;9.158;2022-08-03T07:42:01;22.60;99.90
14016;DHT22;7083;48.854;9.158;2022-08-03T07:44:27;22.60;99.90
14016;DHT22;7083;48.854;9.158;2022-08-03T07:46:55;22.70;99.90
14016;DHT22;7083;48.854;9.158;2022-08-03T07:49:22;22.80;99.90
14016;DHT22;7083;48.854;9.158;2022-08-03T07:51:49;22.90;99.90
14016;DHT22;7083;48.854;9.158;2022-08-03T07:54:35;23.00;99.30
14016;DHT22;7083;48.854;9.158;2022-08-03T07:57:02;23.20;98.30
14016;DHT22;7083;48.854;9.158;2022-08-03T07:59:29;23.30;97.40
14016;DHT22;7083;48.854;9.158;2022-08-03T08:01:57;23.40;96.60
14016;DHT22;7083;48.854;9.158;2022-08-03T08:04:24;23.50;95.70
14016;DHT22;7083;48.854;9.158;2022-08-03T08:06:50;23.60;95.10
14016;DHT22;7083;48.854;9.158;2022-08-03T08:09:17;25.10;95.50
14016;DHT22;7083;48.854;9.158;2022-08-03T08:11:44;23.80;94.40
14016;DHT22;7083;48.854;9.158;2022-08-03T08:14:10;24.00;93.80
14016;DHT22;7083;48.854;9.158;2022-08-03T08:16:37;24.00;93.40
14016;DHT22;7083;48.854;9.158;2022-08-03T08:19:05;24.20;93.30
14016;DHT22;7083;48.854;9.158;2022-08-03T08:21:32;24.20;92.40
14016;DHT22;7083;48.854;9.158;2022-08-03T08:23:59;24.30;92.00
14016;DHT22;7083;48.854;9.158;2022-08-03T08:26:25;24.40;91.00
14016;DHT22;7083;48.854;9.158;2022-08-03T08:28:52;24.60;90.60
14016;DHT22;7083;48.854;9.158;2022-08-03T08:31:19;24.70;90.00
14016;DHT22;7083;48.854;9.158;2022-08-03T08:33:45;24.70;89.10
14016;DHT22;7083;48.854;9.158;2022-08-03T08:36:13;24.80;88.20
14016;DHT22;7083;48.854;9.158;2022-08-03T08:38:40;24.90;87.30
14016;DHT22;7083;48.854;9.158;2022-08-03T08:41:09;25.10;87.50
14016;DHT22;7083;48.854;9.158;2022-08-03T08:43:36;25.30;86.80
14016;DHT22;7083;48.854;9.158;2022-08-03T08:46:04;25.30;86.20
14016;DHT22;7083;48.854;9.158;2022-08-03T08:48:32;25.40;85.60
14016;DHT22;7083;48.854;9.158;2022-08-03T08:51:01;25.40;85.40
14016;DHT22;7083;48.854;9.158;2022-08-03T08:53:30;25.50;84.50
14016;DHT22;7083;48.854;9.158;2022-08-03T08:56:01;25.60;83.30
14016;DHT22;7083;48.854;9.158;2022-08-03T08:58:30;25.70;82.70
14016;DHT22;7083;48.854;9.158;2022-08-03T09:00:58;25.70;82.00
14016;DHT22;7083;48.854;9.158;2022-08-03T09:03:25;25.80;80.90
14016;DHT22;7083;48.854;9.158;2022-08-03T09:05:52;25.90;79.20
14016;DHT22;7083;48.854;9.158;2022-08-03T09:08:20;26.00;78.80
14016;DHT22;7083;48.854;9.158;2022-08-03T09:10:49;26.00;78.10
14016;DHT22;7083;48.854;9.158;2022-08-03T09:13:16;26.10;76.00
14016;DHT22;7083;48.854;9.158;2022-08-03T09:15:42;26.20;75.50
14016;DHT22;7083;48.854;9.158;2022-08-03T09:18:10;26.20;74.80
14016;DHT22;7083;48.854;9.158;2022-08-03T09:20:38;26.30;74.20
14016;DHT22;7083;48.854;9.158;2022-08-03T09:23:06;26.40;72.70
14016;DHT22;7083;48.854;9.158;2022-08-03T09:25:37;26.50;73.30
14016;DHT22;7083;48.854;9.158;2022-08-03T09:28:08;26.60;73.10
14016;DHT22;7083;48.854;9.158;2022-08-03T09:30:36;26.70;70.80
14016;DHT22;7083;48.854;9.158;2022-08-03T09:33:04;26.70;71.00
14016;DHT22;7083;48.854;9.158;2022-08-03T09:35:31;26.80;71.80
14016;DHT22;7083;48.854;9.158;2022-08-03T09:38:09;26.80;70.70
14016;DHT22;7083;48.854;9.158;2022-08-03T09:40:36;27.00;70.60
14016;DHT22;7083;48.854;9.158;2022-08-03T09:43:03;27.10;69.50
14016;DHT22;7083;48.854;9.158;2022-08-03T09:45:33;27.20;68.30
14016;DHT22;7083;48.854;9.158;2022-08-03T09:48:22;27.20;67.60
14016;DHT22;7083;48.854;9.158;2022-08-03T09:50:50;27.30;66.40
14016;DHT22;7083;48.854;9.158;2022-08-03T09:53:17;27.30;65.80
14016;DHT22;7083;48.854;9.158;2022-08-03T09:55:54;27.40;65.50
14016;DHT22;7083;48.854;9.158;2022-08-03T09:58:22;27.50;65.70
14016;DHT22;7083;48.854;9.158;2022-08-03T10:00:55;27.60;65.30
14016;DHT22;7083;48.854;9.158;2022-08-03T10:03:23;27.60;64.90
14016;DHT22;7083;48.854;9.158;2022-08-03T10:05:50;27.70;63.90
14016;DHT22;7083;48.854;9.158;2022-08-03T10:08:18;27.80;63.40
14016;DHT22;7083;48.854;9.158;2022-08-03T10:10:47;27.80;62.20
14016;DHT22;7083;48.854;9.158;2022-08-03T10:13:15;27.90;62.20
14016;DHT22;7083;48.854;9.158;2022-08-03T10:15:43;27.90;63.20
14016;DHT22;7083;48.854;9.158;2022-08-03T10:18:11;28.00;63.60
14016;DHT22;7083;48.854;9.158;2022-08-03T10:20:43;28.10;63.70
14016;DHT22;7083;48.854;9.158;2022-08-03T10:23:11;28.10;62.70
14016;DHT22;7083;48.854;9.158;2022-08-03T10:25:39;28.20;62.70
14016;DHT22;7083;48.854;9.158;2022-08-03T10:28:11;28.20;62.80
14016;DHT22;7083;48.854;9.158;2022-08-03T10:30:40;28.20;61.60
14016;DHT22;7083;48.854;9.158;2022-08-03T10:33:14;28.20;62.30
14016;DHT22;7083;48.854;9.158;2022-08-03T10:35:43;28.30;62.00
14016;DHT22;7083;48.854;9.158;2022-08-03T10:38:16;28.40;62.00
14016;DHT22;7083;48.854;9.158;2022-08-03T10:40:45;28.50;62.30
14016;DHT22;7083;48.854;9.158;2022-08-03T10:43:17;28.60;62.10
14016;DHT22;7083;48.854;9.158;2022-08-03T10:45:45;28.70;61.50
14016;DHT22;7083;48.854;9.158;2022-08-03T10:48:13;28.80;60.80
14016;DHT22;7083;48.854;9.158;2022-08-03T10:50:41;28.90;60.90
14016;DHT22;7083;48.854;9.158;2022-08-03T10:53:08;29.00;60.10
14016;DHT22;7083;48.854;9.158;2022-08-03T10:55:37;29.00;60.30
14016;DHT22;7083;48.854;9.158;2022-08-03T10:58:47;29.00;60.70
14016;DHT22;7083;48.854;9.158;2022-08-03T11:01:15;29.00;60.40
14016;DHT22;7083;48.854;9.158;2022-08-03T11:04:14;29.10;61.10
14016;DHT22;7083;48.854;9.158;2022-08-03T11:06:43;29.10;61.30
14016;DHT22;7083;48.854;9.158;2022-08-03T11:09:15;29.20;59.90
14016;DHT22;7083;48.854;9.158;2022-08-03T11:11:43;29.30;59.70
14016;DHT22;7083;48.854;9.158;2022-08-03T11:14:12;29.30;59.80
14016;DHT22;7083;48.854;9.158;2022-08-03T11:16:41;29.40;59.90
14016;DHT22;7083;48.854;9.158;2022-08-03T11:19:11;29.50;58.80
14016;DHT22;7083;48.854;9.158;2022-08-03T11:21:56;29.60;59.40
14016;DHT22;7083;48.854;9.158;2022-08-03T11:24:57;29.70;59.50
14016;DHT22;7083;48.854;9.158;2022-08-03T11:27:25;29.80;58.80
14016;DHT22;7083;48.854;9.158;2022-08-03T11:29:54;29.80;57.60
14016;DHT22;7083;48.854;9.158;2022-08-03T11:32:52;29.90;58.40
14016;DHT22;7083;48.854;9.158;2022-08-03T11:35:22;30.00;58.40
14016;DHT22;7083;48.854;9.158;2022-08-03T11:38:05;30.10;57.90
14016;DHT22;7083;48.854;9.158;2022-08-03T11:40:37;30.20;57.70
14016;DHT22;7083;48.854;9.158;2022-08-03T11:43:06;30.30;58.00
14016;DHT22;7083;48.854;9.158;2022-08-03T11:45:34;30.40;57.30
14016;DHT22;7083;48.854;9.158;2022-08-03T11:48:12;30.50;57.10
14016;DHT22;7083;48.854;9.158;2022-08-03T11:50:40;30.60;57.00
14016;DHT22;7083;48.854;9.158;2022-08-03T11:53:13;30.70;56.40
14016;DHT22;7083;48.854;9.158;2022-08-03T11:55:40;30.80;56.10
14016;DHT22;7083;48.854;9.158;2022-08-03T11:58:14;30.90;56.60
14016;DHT22;7083;48.854;9.158;2022-08-03T12:00:41;31.00;56.50
14016;DHT22;7083;48.854;9.158;2022-08-03T12:03:09;31.20;56.10
14016;DHT22;7083;48.854;9.158;2022-08-03T12:05:43;31.30;55.10
14016;DHT22;7083;48.854;9.158;2022-08-03T12:08:13;31.30;54.60
14016;DHT22;7083;48.854;9.158;2022-08-03T12:10:46;31.40;54.80
14016;DHT22;7083;48.854;9.158;2022-08-03T12:13:14;31.50;54.70
14016;DHT22;7083;48.854;9.158;2022-08-03T12:15:41;31.60;53.30
14016;DHT22;7083;48.854;9.158;2022-08-03T12:18:15;31.70;54.00
14016;DHT22;7083;48.854;9.158;2022-08-03T12:20:43;31.90;54.30
14016;DHT22;7083;48.854;9.158;2022-08-03T12:23:12;32.10;53.40
14016;DHT22;7083;48.854;9.158;2022-08-03T12:25:40;32.20;53.00
14016;DHT22;7083;48.854;9.158;2022-08-03T12:28:13;32.30;52.90
14016;DHT22;7083;48.854;9.158;2022-08-03T12:30:42;32.30;52.50
14016;DHT22;7083;48.854;9.158;2022-08-03T12:33:14;32.40;52.60
14016;DHT22;7083;48.854;9.158;2022-08-03T12:35:41;32.60;52.40
14016;DHT22;7083;48.854;9.158;2022-08-03T12:38:07;32.70;52.30
14016;DHT22;7083;48.854;9.158;2022-08-03T12:40:36;32.90;52.00
14016;DHT22;7083;48.854;9.158;2022-08-03T12:43:10;33.20;51.60
14016;DHT22;7083;48.854;9.158;2022-08-03T12:45:38;33.30;50.50
14016;DHT22;7083;48.854;9.158;2022-08-03T12:48:09;33.40;51.00
14016;DHT22;7083;48.854;9.158;2022-08-03T12:50:37;33.50;51.00
14016;DHT22;7083;48.854;9.158;2022-08-03T12:53:07;33.80;50.50
14016;DHT22;7083;48.854;9.158;2022-08-03T12:55:34;34.00;49.60
14016;DHT22;7083;48.854;9.158;2022-08-03T12:58:04;34.20;50.10
14016;DHT22;7083;48.854;9.158;2022-08-03T13:00:31;34.20;49.20
14016;DHT22;7083;48.854;9.158;2022-08-03T13:02:59;34.40;49.90
14016;DHT22;7083;48.854;9.158;2022-08-03T13:05:26;34.60;49.80
14016;DHT22;7083;48.854;9.158;2022-08-03T13:07:53;34.90;49.60
14016;DHT22;7083;48.854;9.158;2022-08-03T13:10:28;35.10;48.60
14016;DHT22;7083;48.854;9.158;2022-08-03T13:12:55;35.40;48.30
14016;DHT22;7083;48.854;9.158;2022-08-03T13:15:25;35.50;48.30
14016;DHT22;7083;48.854;9.158;2022-08-03T13:17:52;36.00;47.90
14016;DHT22;7083;48.854;9.158;2022-08-03T13:20:19;36.80;47.40
14016;DHT22;7083;48.854;9.158;2022-08-03T13:22:47;38.00;44.90
14016;DHT22;7083;48.854;9.158;2022-08-03T13:25:14;39.40;43.50
14016;DHT22;7083;48.854;9.158;2022-08-03T13:27:40;40.70;41.10
14016;DHT22;7083;48.854;9.158;2022-08-03T13:30:10;41.70;39.30
14016;DHT22;7083;48.854;9.158;2022-08-03T13:32:38;42.80;39.10
14016;DHT22;7083;48.854;9.158;2022-08-03T13:35:06;43.70;36.50
14016;DHT22;7083;48.854;9.158;2022-08-03T13:37:33;44.30;35.90
14016;DHT22;7083;48.854;9.158;2022-08-03T13:40:01;45.10;36.00
14016;DHT22;7083;48.854;9.158;2022-08-03T13:42:30;45.80;35.00
14016;DHT22;7083;48.854;9.158;2022-08-03T13:44:56;46.20;34.30
14016;DHT22;7083;48.854;9.158;2022-08-03T13:47:23;46.30;33.30
14016;DHT22;7083;48.854;9.158;2022-08-03T13:49:51;46.00;33.80
14016;DHT22;7083;48.854;9.158;2022-08-03T13:52:18;46.70;33.60
14016;DHT22;7083;48.854;9.158;2022-08-03T13:54:45;47.00;33.10
14016;DHT22;7083;48.854;9.158;2022-08-03T13:57:12;47.50;32.60
14016;DHT22;7083;48.854;9.158;2022-08-03T13:59:39;47.60;32.70
14016;DHT22;7083;48.854;9.158;2022-08-03T14:02:06;47.90;32.50
14016;DHT22;7083;48.854;9.158;2022-08-03T14:04:36;48.00;31.20
14016;DHT22;7083;48.854;9.158;2022-08-03T14:07:04;48.20;31.30
14016;DHT22;7083;48.854;9.158;2022-08-03T14:09:31;48.00;31.50
14016;DHT22;7083;48.854;9.158;2022-08-03T14:11:59;47.80;32.30
14016;DHT22;7083;48.854;9.158;2022-08-03T14:14:26;47.70;31.10
14016;DHT22;7083;48.854;9.158;2022-08-03T14:16:53;47.60;31.50
14016;DHT22;7083;48.854;9.158;2022-08-03T14:19:19;47.50;32.10
14016;DHT22;7083;48.854;9.158;2022-08-03T14:21:46;48.00;31.50
14016;DHT22;7083;48.854;9.158;2022-08-03T14:24:14;48.80;31.60
14016;DHT22;7083;48.854;9.158;2022-08-03T14:26:41;49.10;30.70
14016;DHT22;7083;48.854;9.158;2022-08-03T14:29:07;49.10;30.70
14016;DHT22;7083;48.854;9.158;2022-08-03T14:31:38;49.00;31.10
14016;DHT22;7083;48.854;9.158;2022-08-03T14:34:05;49.30;30.30
14016;DHT22;7083;48.854;9.158;2022-08-03T14:36:31;49.00;30.50
14016;DHT22;7083;48.854;9.158;2022-08-03T14:38:58;49.10;30.80
14016;DHT22;7083;48.854;9.158;2022-08-03T14:41:26;49.80;30.60
14016;DHT22;7083;48.854;9.158;2022-08-03T14:43:53;50.20;29.60
14016;DHT22;7083;48.854;9.158;2022-08-03T14:46:21;50.10;29.70
14016;DHT22;7083;48.854;9.158;2022-08-03T14:48:47;50.30;30.10
14016;DHT22;7083;48.854;9.158;2022-08-03T14:51:14;50.30;29.40
14016;DHT22;7083;48.854;9.158;2022-08-03T14:53:41;50.10;29.70
14016;DHT22;7083;48.854;9.158;2022-08-03T14:56:08;50.20;28.80
14016;DHT22;7083;48.854;9.158;2022-08-03T14:58:35;49.90;29.40
14016;DHT22;7083;48.854;9.158;2022-08-03T15:01:02;49.80;29.30
14016;DHT22;7083;48.854;9.158;2022-08-03T15:03:29;50.40;29.70
14016;DHT22;7083;48.854;9.158;2022-08-03T15:05:56;50.60;28.50
14016;DHT22;7083;48.854;9.158;2022-08-03T15:08:25;50.80;28.70
14016;DHT22;7083;48.854;9.158;2022-08-03T15:10:52;51.00;28.20
14016;DHT22;7083;48.854;9.158;2022-08-03T15:13:23;51.00;28.70
14016;DHT22;7083;48.854;9.158;2022-08-03T15:15:52;50.90;27.90
14016;DHT22;7083;48.854;9.158;2022-08-03T15:18:22;50.60;27.90
14016;DHT22;7083;48.854;9.158;2022-08-03T15:20:49;50.60;28.50
14016;DHT22;7083;48.854;9.158;2022-08-03T15:23:16;50.80;28.60
14016;DHT22;7083;48.854;9.158;2022-08-03T15:25:44;50.80;28.60
14016;DHT22;7083;48.854;9.158;2022-08-03T15:28:11;51.10;28.30
14016;DHT22;7083;48.854;9.158;2022-08-03T15:30:38;50.90;28.40
14016;DHT22;7083;48.854;9.158;2022-08-03T15:33:06;51.00;27.80
14016;DHT22;7083;48.854;9.158;2022-08-03T15:35:33;51.20;27.80
14016;DHT22;7083;48.854;9.158;2022-08-03T15:37:59;51.40;28.20
14016;DHT22;7083;48.854;9.158;2022-08-03T15:40:26;51.40;27.30
14016;DHT22;7083;48.854;9.158;2022-08-03T15:42:53;51.00;28.40
14016;DHT22;7083;48.854;9.158;2022-08-03T15:45:19;51.00;28.20
14016;DHT22;7083;48.854;9.158;2022-08-03T15:47:46;51.20;28.00
14016;DHT22;7083;48.854;9.158;2022-08-03T15:50:14;51.30;28.40
14016;DHT22;7083;48.854;9.158;2022-08-03T15:52:45;51.50;28.10
14016;DHT22;7083;48.854;9.158;2022-08-03T15:55:12;51.40;28.10